createdAt,value
2018-11-05T00:00:56.129Z,1006.44
2018-11-05T00:01:56.093Z,1006.43
2018-11-05T00:02:56.056Z,1006.51
2018-11-05T00:03:56.023Z,1006.48
2018-11-05T00:04:55.990Z,1006.47
2018-11-05T00:05:55.950Z,1006.51
2018-11-05T00:06:55.911Z,1006.51
2018-11-05T00:07:55.877Z,1006.48
2018-11-05T00:08:55.836Z,1006.50
2018-11-05T00:09:55.810Z,1006.47
2018-11-05T00:10:55.763Z,1006.47
2018-11-05T00:11:55.725Z,1006.38
2018-11-05T00:12:55.690Z,1006.38
2018-11-05T00:13:55.656Z,1006.40
2018-11-05T00:14:55.629Z,1006.37
2018-11-05T00:15:55.580Z,1006.32
2018-11-05T00:16:55.541Z,1006.34
2018-11-05T00:17:55.510Z,1006.32
2018-11-05T00:18:55.471Z,1006.31
2018-11-05T00:19:55.444Z,1006.31
2018-11-05T00:20:55.395Z,1006.22
2018-11-05T00:21:55.369Z,1006.19
2018-11-05T00:22:55.324Z,1006.18
2018-11-05T00:23:55.288Z,1006.19
2018-11-05T00:24:55.262Z,1006.13
2018-11-05T00:25:55.215Z,1006.13
2018-11-05T00:26:55.174Z,1006.11
2018-11-05T00:27:55.141Z,1006.09
2018-11-05T00:28:55.107Z,1006.05
2018-11-05T00:29:55.076Z,1006.06
2018-11-05T00:30:55.027Z,1006.05
2018-11-05T00:31:54.992Z,1006.09
2018-11-05T00:32:54.958Z,1006.07
2018-11-05T00:33:54.919Z,1006.07
2018-11-05T00:34:54.891Z,1006.07
2018-11-05T00:35:54.844Z,1006.09
2018-11-05T00:36:54.815Z,1006.05
2018-11-05T00:37:54.771Z,1006.02
2018-11-05T00:38:54.735Z,1005.98
2018-11-05T00:39:54.705Z,1006.01
2018-11-05T00:40:54.660Z,1006.02
2018-11-05T00:41:54.626Z,1005.97
2018-11-05T00:42:54.607Z,1006.01
2018-11-05T00:43:54.554Z,1006.02
2018-11-05T00:44:54.533Z,1005.99
2018-11-05T00:45:54.475Z,1005.98
2018-11-05T00:46:54.437Z,1005.98
2018-11-05T00:47:54.408Z,1005.95
2018-11-05T00:48:54.365Z,1005.97
2018-11-05T00:49:54.339Z,1005.97
2018-11-05T00:50:54.294Z,1005.96
2018-11-05T00:51:54.252Z,1005.90
2018-11-05T00:52:54.242Z,1005.85
2018-11-05T00:53:54.180Z,1005.88
2018-11-05T00:54:54.149Z,1005.83
2018-11-05T00:55:54.103Z,1005.86
2018-11-05T00:56:54.071Z,1005.86
2018-11-05T00:57:54.031Z,1005.90
2018-11-05T00:58:53.996Z,1005.87
2018-11-05T00:59:53.973Z,1005.84
2018-11-05T01:00:53.919Z,1005.82
2018-11-05T01:01:53.886Z,1005.82
2018-11-05T01:02:53.845Z,1005.78
2018-11-05T01:03:53.809Z,1005.80
2018-11-05T01:04:53.784Z,1005.81
2018-11-05T01:05:53.735Z,1005.78
2018-11-05T01:06:53.698Z,1005.77
2018-11-05T01:07:53.660Z,1005.76
2018-11-05T01:08:53.625Z,1005.68
2018-11-05T01:09:53.604Z,1005.69
2018-11-05T01:10:53.551Z,1005.67
2018-11-05T01:11:53.513Z,1005.68
2018-11-05T01:12:53.478Z,1005.66
2018-11-05T01:13:53.449Z,1005.66
2018-11-05T01:14:53.404Z,1005.65
2018-11-05T01:15:53.380Z,1005.66
2018-11-05T01:16:53.339Z,1005.60
2018-11-05T01:17:53.292Z,1005.64
2018-11-05T01:18:53.252Z,1005.64
2018-11-05T01:19:53.221Z,1005.63
2018-11-05T01:20:53.186Z,1005.67
2018-11-05T01:21:53.142Z,1005.65
2018-11-05T01:22:53.106Z,1005.62
2018-11-05T01:23:53.070Z,1005.63
2018-11-05T01:24:53.032Z,1005.58
2018-11-05T01:25:53.008Z,1005.53
2018-11-05T01:26:52.956Z,1005.54
2018-11-05T01:27:52.922Z,1005.51
2018-11-05T01:28:52.886Z,1005.55
2018-11-05T01:29:52.844Z,1005.53
2018-11-05T01:30:52.820Z,1005.50
2018-11-05T01:31:52.775Z,1005.48
2018-11-05T01:32:52.735Z,1005.47
2018-11-05T01:33:52.698Z,1005.43
2018-11-05T01:34:52.660Z,1005.43
2018-11-05T01:35:52.636Z,1005.43
2018-11-05T01:36:52.587Z,1005.43
2018-11-05T01:37:52.552Z,1005.37
2018-11-05T01:38:52.512Z,1005.40
2018-11-05T01:39:52.479Z,1005.39
2018-11-05T01:40:52.455Z,1005.35
2018-11-05T01:41:52.404Z,1005.43
2018-11-05T01:42:52.381Z,1005.47
2018-11-05T01:43:52.333Z,1005.39
2018-11-05T01:44:52.292Z,1005.40
2018-11-05T01:45:52.266Z,1005.37
2018-11-05T01:46:52.216Z,1005.32
2018-11-05T01:47:52.179Z,1005.33
2018-11-05T01:48:52.141Z,1005.30
2018-11-05T01:49:52.106Z,1005.27
2018-11-05T01:50:52.079Z,1005.25
2018-11-05T01:51:52.031Z,1005.26
2018-11-05T01:52:51.995Z,1005.20
2018-11-05T01:53:51.957Z,1005.23
2018-11-05T01:54:51.921Z,1005.24
2018-11-05T01:55:51.891Z,1005.21
2018-11-05T01:56:51.845Z,1005.22
2018-11-05T01:57:51.812Z,1005.18
2018-11-05T01:58:51.771Z,1005.14
2018-11-05T01:59:51.736Z,1005.10
2018-11-05T02:00:51.708Z,1005.10
2018-11-05T02:01:51.662Z,1005.10
2018-11-05T02:02:51.624Z,1005.10
2018-11-05T02:03:51.588Z,1005.13
2018-11-05T02:04:51.559Z,1005.10
2018-11-05T02:05:51.521Z,1005.11
2018-11-05T02:06:51.476Z,1005.13
2018-11-05T02:07:51.440Z,1005.13
2018-11-05T02:08:51.402Z,1005.15
2018-11-05T02:09:51.363Z,1005.16
2018-11-05T02:10:51.335Z,1005.16
2018-11-05T02:11:51.290Z,1005.16
2018-11-05T02:12:51.252Z,1005.20
2018-11-05T02:13:51.218Z,1005.16
2018-11-05T02:14:51.180Z,1005.23
2018-11-05T02:15:51.203Z,1005.18
2018-11-05T02:16:51.103Z,1005.16
2018-11-05T02:17:51.070Z,1005.13
2018-11-05T02:18:51.034Z,1005.13
2018-11-05T02:19:50.988Z,1005.10
2018-11-05T02:20:50.967Z,1005.09
2018-11-05T02:21:50.919Z,1005.12
2018-11-05T02:22:50.882Z,1005.16
2018-11-05T02:23:50.845Z,1005.11
2018-11-05T02:24:50.805Z,1005.11
2018-11-05T02:25:50.772Z,1005.10
2018-11-05T02:26:50.745Z,1005.03
2018-11-05T02:27:50.694Z,1005.03
2018-11-05T02:28:50.656Z,1005.00
2018-11-05T02:29:50.620Z,1004.98
2018-11-05T02:30:50.584Z,1005.00
2018-11-05T02:31:50.567Z,1004.98
2018-11-05T02:32:50.513Z,1004.97
2018-11-05T02:33:50.473Z,1004.95
2018-11-05T02:34:50.433Z,1004.96
2018-11-05T02:35:50.398Z,1004.99
2018-11-05T02:36:50.389Z,1004.98
2018-11-05T02:37:50.327Z,1005.01
2018-11-05T02:38:50.287Z,1005.02
2018-11-05T02:39:50.258Z,1005.00
2018-11-05T02:40:50.211Z,1004.99
2018-11-05T02:41:50.190Z,1005.03
2018-11-05T02:42:50.140Z,1004.98
2018-11-05T02:43:50.103Z,1004.99
2018-11-05T02:44:50.063Z,1004.98
2018-11-05T02:45:50.026Z,1004.95
2018-11-05T02:46:49.999Z,1004.94
2018-11-05T02:47:49.950Z,1004.95
2018-11-05T02:48:49.917Z,1004.97
2018-11-05T02:49:49.876Z,1004.96
2018-11-05T02:50:49.841Z,1004.93
2018-11-05T02:51:49.815Z,1004.88
2018-11-05T02:52:49.773Z,1004.87
2018-11-05T02:53:49.729Z,1004.81
2018-11-05T02:54:49.689Z,1004.81
2018-11-05T02:55:49.657Z,1004.77
2018-11-05T02:56:49.629Z,1004.73
2018-11-05T02:57:49.581Z,1004.71
2018-11-05T02:58:49.542Z,1004.70
2018-11-05T02:59:49.504Z,1004.69
2018-11-05T03:00:49.475Z,1004.66
2018-11-05T03:01:49.468Z,1004.64
2018-11-05T03:02:49.400Z,1004.68
2018-11-05T03:03:49.355Z,1004.70
2018-11-05T03:04:49.318Z,1004.73
2018-11-05T03:05:49.285Z,1004.74
2018-11-05T03:06:49.250Z,1004.75
2018-11-05T03:07:49.210Z,1004.71
2018-11-05T03:08:49.173Z,1004.69
2018-11-05T03:09:49.135Z,1004.67
2018-11-05T03:10:49.097Z,1004.70
2018-11-05T03:11:49.070Z,1004.69
2018-11-05T03:12:49.026Z,1004.66
2018-11-05T03:13:48.989Z,1004.64
2018-11-05T03:14:48.949Z,1004.61
2018-11-05T03:15:48.911Z,1004.63
2018-11-05T03:16:48.882Z,1004.57
2018-11-05T03:17:48.840Z,1004.61
2018-11-05T03:18:48.799Z,1004.55
2018-11-05T03:19:48.761Z,1004.57
2018-11-05T03:20:48.730Z,1004.54
2018-11-05T03:21:48.696Z,1004.56
2018-11-05T03:22:48.651Z,1004.53
2018-11-05T03:23:48.613Z,1004.54
2018-11-05T03:24:48.577Z,1004.57
2018-11-05T03:25:48.549Z,1004.56
2018-11-05T03:26:48.512Z,1004.60
2018-11-05T03:27:48.464Z,1004.61
2018-11-05T03:28:48.427Z,1004.61
2018-11-05T03:29:48.392Z,1004.62
2018-11-05T03:30:48.354Z,1004.68
2018-11-05T03:31:48.325Z,1004.70
2018-11-05T03:32:48.278Z,1004.73
2018-11-05T03:33:48.242Z,1004.74
2018-11-05T03:34:48.211Z,1004.74
2018-11-05T03:35:48.227Z,1004.74
2018-11-05T03:36:48.155Z,1004.75
2018-11-05T03:37:48.096Z,1004.77
2018-11-05T03:38:48.054Z,1004.77
2018-11-05T03:39:48.017Z,1004.79
2018-11-05T03:40:47.982Z,1004.80
2018-11-05T03:41:47.956Z,1004.83
2018-11-05T03:42:47.953Z,1004.80
2018-11-05T03:43:47.869Z,1004.84
2018-11-05T03:44:47.835Z,1004.80
2018-11-05T03:45:47.793Z,1004.82
2018-11-05T03:46:47.755Z,1004.78
2018-11-05T03:47:47.730Z,1004.82
2018-11-05T03:48:47.682Z,1004.76
2018-11-05T03:49:47.647Z,1004.69
2018-11-05T03:50:47.608Z,1004.77
2018-11-05T03:51:47.572Z,1004.72
2018-11-05T03:52:47.544Z,1004.72
2018-11-05T03:53:47.497Z,1004.72
2018-11-05T03:54:47.520Z,1004.72
2018-11-05T03:55:47.436Z,1004.69
2018-11-05T03:56:47.458Z,1004.67
2018-11-05T03:57:47.358Z,1004.66
2018-11-05T03:58:47.310Z,1004.67
2018-11-05T03:59:47.276Z,1004.68
2018-11-05T04:00:47.246Z,1004.65
2018-11-05T04:01:47.202Z,1004.62
2018-11-05T04:02:47.167Z,1004.60
2018-11-05T04:03:47.123Z,1004.61
2018-11-05T04:04:47.091Z,1004.63
2018-11-05T04:05:47.051Z,1004.64
2018-11-05T04:06:47.011Z,1004.60
2018-11-05T04:07:46.987Z,1004.60
2018-11-05T04:08:46.938Z,1004.56
2018-11-05T04:09:46.903Z,1004.53
2018-11-05T04:10:46.865Z,1004.53
2018-11-05T04:11:46.834Z,1004.57
2018-11-05T04:12:46.798Z,1004.55
2018-11-05T04:13:46.751Z,1004.56
2018-11-05T04:14:46.714Z,1004.48
2018-11-05T04:15:46.761Z,1004.45
2018-11-05T04:16:46.641Z,1004.46
2018-11-05T04:17:46.617Z,1004.45
2018-11-05T04:18:46.567Z,1004.43
2018-11-05T04:19:46.528Z,1004.45
2018-11-05T04:20:46.491Z,1004.43
2018-11-05T04:21:46.454Z,1004.41
2018-11-05T04:22:46.425Z,1004.42
2018-11-05T04:23:46.378Z,1004.37
2018-11-05T04:24:46.339Z,1004.39
2018-11-05T04:25:46.305Z,1004.40
2018-11-05T04:26:46.265Z,1004.37
2018-11-05T04:27:46.311Z,1004.33
2018-11-05T04:28:46.193Z,1004.33
2018-11-05T04:29:46.154Z,1004.29
2018-11-05T04:30:46.120Z,1004.33
2018-11-05T04:31:46.082Z,1004.28
2018-11-05T04:32:46.050Z,1004.24
2018-11-05T04:33:46.011Z,1004.24
2018-11-05T04:34:45.976Z,1004.24
2018-11-05T04:35:45.934Z,1004.24
2018-11-05T04:36:45.897Z,1004.21
2018-11-05T04:37:45.869Z,1004.20
2018-11-05T04:38:45.819Z,1004.23
2018-11-05T04:39:45.786Z,1004.19
2018-11-05T04:40:45.745Z,1004.19
2018-11-05T04:41:45.722Z,1004.24
2018-11-05T04:42:45.677Z,1004.16
2018-11-05T04:43:45.637Z,1004.21
2018-11-05T04:44:45.599Z,1004.19
2018-11-05T04:45:45.559Z,1004.21
2018-11-05T04:46:45.522Z,1004.24
2018-11-05T04:47:45.506Z,1004.23
2018-11-05T04:48:45.455Z,1004.25
2018-11-05T04:49:45.414Z,1004.25
2018-11-05T04:50:45.374Z,1004.24
2018-11-05T04:51:45.343Z,1004.25
2018-11-05T04:52:45.300Z,1004.24
2018-11-05T04:53:45.277Z,1004.18
2018-11-05T04:54:45.231Z,1004.19
2018-11-05T04:55:45.187Z,1004.23
2018-11-05T04:56:45.155Z,1004.19
2018-11-05T04:57:45.114Z,1004.19
2018-11-05T04:58:45.087Z,1004.17
2018-11-05T04:59:45.043Z,1004.19
2018-11-05T05:00:47.549Z,1004.20
2018-11-05T05:01:44.969Z,1004.20
2018-11-05T05:02:44.929Z,1004.23
2018-11-05T05:03:44.902Z,1004.22
2018-11-05T05:04:44.859Z,1004.20
2018-11-05T05:05:44.820Z,1004.22
2018-11-05T05:06:44.779Z,1004.23
2018-11-05T05:07:44.747Z,1004.21
2018-11-05T05:08:44.720Z,1004.20
2018-11-05T05:09:44.670Z,1004.21
2018-11-05T05:10:44.628Z,1004.21
2018-11-05T05:11:44.596Z,1004.21
2018-11-05T05:12:44.557Z,1004.15
2018-11-05T05:13:44.531Z,1004.18
2018-11-05T05:14:44.486Z,1004.21
2018-11-05T05:15:44.445Z,1004.15
2018-11-05T05:16:44.413Z,1004.20
2018-11-05T05:17:44.377Z,1004.19
2018-11-05T05:18:44.341Z,1004.19
2018-11-05T05:19:44.296Z,1004.15
2018-11-05T05:20:44.258Z,1004.19
2018-11-05T05:21:44.221Z,1004.16
2018-11-05T05:22:44.517Z,1004.16
2018-11-05T05:23:44.165Z,1004.17
2018-11-05T05:24:44.111Z,1004.20
2018-11-05T05:25:44.074Z,1004.26
2018-11-05T05:26:44.036Z,1004.31
2018-11-05T05:27:43.997Z,1004.34
2018-11-05T05:28:43.971Z,1004.33
2018-11-05T05:29:43.924Z,1004.30
2018-11-05T05:30:43.892Z,1004.35
2018-11-05T05:31:43.848Z,1004.31
2018-11-05T05:32:43.817Z,1004.31
2018-11-05T05:33:43.802Z,1004.31
2018-11-05T05:34:43.741Z,1004.33
2018-11-05T05:35:43.706Z,1004.32
2018-11-05T05:36:43.658Z,1004.35
2018-11-05T05:37:43.631Z,1004.34
2018-11-05T05:38:43.598Z,1004.31
2018-11-05T05:39:43.550Z,1004.35
2018-11-05T05:40:43.600Z,1004.32
2018-11-05T05:41:43.475Z,1004.31
2018-11-05T05:42:43.443Z,1004.33
2018-11-05T05:43:43.410Z,1004.32
2018-11-05T05:44:43.365Z,1004.30
2018-11-05T05:45:43.326Z,1004.34
2018-11-05T05:46:43.289Z,1004.32
2018-11-05T05:47:43.250Z,1004.33
2018-11-05T05:48:43.226Z,1004.34
2018-11-05T05:49:43.180Z,1004.34
2018-11-05T05:50:43.138Z,1004.32
2018-11-05T05:51:43.101Z,1004.29
2018-11-05T05:52:43.064Z,1004.23
2018-11-05T05:53:43.038Z,1004.27
2018-11-05T05:54:42.989Z,1004.28
2018-11-05T05:55:42.950Z,1004.31
2018-11-05T05:56:42.915Z,1004.28
2018-11-05T05:57:42.878Z,1004.32
2018-11-05T05:58:42.853Z,1004.33
2018-11-05T05:59:42.833Z,1004.33
2018-11-05T06:00:42.760Z,1004.37
2018-11-05T06:01:42.725Z,1004.36
2018-11-05T06:02:42.703Z,1004.38
2018-11-05T06:03:42.652Z,1004.38
2018-11-05T06:04:42.624Z,1004.34
2018-11-05T06:05:42.582Z,1004.39
2018-11-05T06:06:42.545Z,1004.43
2018-11-05T06:07:42.504Z,1004.44
2018-11-05T06:08:42.466Z,1004.43
2018-11-05T06:09:42.439Z,1004.49
2018-11-05T06:10:42.391Z,1004.43
2018-11-05T06:11:42.353Z,1004.46
2018-11-05T06:12:42.317Z,1004.44
2018-11-05T06:13:42.281Z,1004.45
2018-11-05T06:14:42.261Z,1004.42
2018-11-05T06:15:42.218Z,1004.46
2018-11-05T06:16:42.169Z,1004.47
2018-11-05T06:17:42.134Z,1004.54
2018-11-05T06:18:42.095Z,1004.50
2018-11-05T06:19:42.068Z,1004.52
2018-11-05T06:20:42.022Z,1004.50
2018-11-05T06:21:41.996Z,1004.47
2018-11-05T06:22:41.948Z,1004.49
2018-11-05T06:23:41.914Z,1004.46
2018-11-05T06:24:41.890Z,1004.48
2018-11-05T06:25:41.837Z,1004.50
2018-11-05T06:26:41.800Z,1004.50
2018-11-05T06:27:41.765Z,1004.52
2018-11-05T06:28:41.803Z,1004.50
2018-11-05T06:29:41.706Z,1004.51
2018-11-05T06:30:41.655Z,1004.51
2018-11-05T06:31:41.629Z,1004.56
2018-11-05T06:32:41.583Z,1004.55
2018-11-05T06:33:41.547Z,1004.51
2018-11-05T06:34:41.520Z,1004.52
2018-11-05T06:35:41.476Z,1004.52
2018-11-05T06:36:41.435Z,1004.45
2018-11-05T06:37:41.398Z,1004.46
2018-11-05T06:38:41.365Z,1004.45
2018-11-05T06:39:41.337Z,1004.48
2018-11-05T06:40:41.291Z,1004.50
2018-11-05T06:41:41.338Z,1004.48
2018-11-05T06:42:41.342Z,1004.55
2018-11-05T06:43:41.181Z,1004.58
2018-11-05T06:44:41.181Z,1004.50
2018-11-05T06:45:41.114Z,1004.49
2018-11-05T06:46:41.073Z,1004.42
2018-11-05T06:47:41.036Z,1004.43
2018-11-05T06:48:41.037Z,1004.49
2018-11-05T06:49:40.977Z,1004.46
2018-11-05T06:50:40.926Z,1004.40
2018-11-05T06:51:40.891Z,1004.38
2018-11-05T06:52:40.870Z,1004.38
2018-11-05T06:53:40.821Z,1004.37
2018-11-05T06:54:40.792Z,1004.37
2018-11-05T06:55:40.744Z,1004.35
2018-11-05T06:56:40.710Z,1004.34
2018-11-05T06:57:40.723Z,1004.30
2018-11-05T06:58:40.637Z,1004.27
2018-11-05T06:59:40.613Z,1004.24
2018-11-05T07:00:40.571Z,1004.24
2018-11-05T07:01:40.533Z,1004.25
2018-11-05T07:02:40.613Z,1004.25
2018-11-05T07:03:40.459Z,1004.26
2018-11-05T07:04:40.430Z,1004.26
2018-11-05T07:05:40.389Z,1004.27
2018-11-05T07:06:40.351Z,1004.29
2018-11-05T07:07:40.315Z,1004.24
2018-11-05T07:08:40.282Z,1004.19
2018-11-05T07:09:40.305Z,1004.19
2018-11-05T07:10:40.206Z,1004.20
2018-11-05T07:11:40.169Z,1004.23
2018-11-05T07:12:40.140Z,1004.26
2018-11-05T07:13:40.099Z,1004.27
2018-11-05T07:14:40.083Z,1004.25
2018-11-05T07:15:40.023Z,1004.30
2018-11-05T07:16:39.991Z,1004.29
2018-11-05T07:17:39.953Z,1004.33
2018-11-05T07:18:40.062Z,1004.30
2018-11-05T07:19:39.888Z,1004.28
2018-11-05T07:20:39.855Z,1004.29
2018-11-05T07:21:39.825Z,1004.29
2018-11-05T07:22:39.777Z,1004.30
2018-11-05T07:23:39.739Z,1004.28
2018-11-05T07:24:39.709Z,1004.33
2018-11-05T07:25:39.677Z,1004.34
2018-11-05T07:26:39.667Z,1004.41
2018-11-05T07:27:39.676Z,1004.39
2018-11-05T07:28:39.565Z,1004.41
2018-11-05T07:29:39.529Z,1004.39
2018-11-05T07:30:39.496Z,1004.39
2018-11-05T07:31:39.454Z,1004.41
2018-11-05T07:32:39.419Z,1004.48
2018-11-05T07:33:39.421Z,1004.43
2018-11-05T07:34:39.347Z,1004.42
2018-11-05T07:35:39.323Z,1004.41
2018-11-05T07:36:39.274Z,1004.42
2018-11-05T07:37:39.243Z,1004.45
2018-11-05T07:38:39.205Z,1004.40
2018-11-05T07:39:39.169Z,1004.40
2018-11-05T07:40:39.152Z,1004.45
2018-11-05T07:41:39.099Z,1004.47
2018-11-05T07:42:39.064Z,1004.51
2018-11-05T07:43:39.027Z,1004.55
2018-11-05T07:44:38.999Z,1004.58
2018-11-05T07:45:38.962Z,1004.60
2018-11-05T07:46:38.921Z,1004.63
2018-11-05T07:47:38.888Z,1004.66
2018-11-05T07:48:38.851Z,1004.64
2018-11-05T07:49:38.815Z,1004.69
2018-11-05T07:50:38.847Z,1004.72
2018-11-05T07:51:38.745Z,1004.68
2018-11-05T07:52:38.711Z,1004.74
2018-11-05T07:53:38.677Z,1004.72
2018-11-05T07:54:38.640Z,1004.72
2018-11-05T07:55:38.613Z,1004.66
2018-11-05T07:56:38.601Z,1004.74
2018-11-05T07:57:38.538Z,1004.75
2018-11-05T07:58:38.499Z,1004.71
2018-11-05T07:59:38.463Z,1004.70
2018-11-05T08:00:38.438Z,1004.68
2018-11-05T08:01:38.408Z,1004.67
2018-11-05T08:02:38.395Z,1004.65
2018-11-05T08:03:38.325Z,1004.59
2018-11-05T08:04:38.290Z,1004.68
2018-11-05T08:05:38.265Z,1004.63
2018-11-05T08:06:38.218Z,1004.62
2018-11-05T08:07:38.181Z,1004.58
2018-11-05T08:08:38.153Z,1004.60
2018-11-05T08:09:38.114Z,1004.65
2018-11-05T08:10:38.090Z,1004.57
2018-11-05T08:11:38.046Z,1004.61
2018-11-05T08:12:38.012Z,1004.61
2018-11-05T08:13:37.981Z,1004.61
2018-11-05T08:14:37.949Z,1004.58
2018-11-05T08:15:37.916Z,1004.60
2018-11-05T08:16:37.875Z,1004.58
2018-11-05T08:17:37.837Z,1004.53
2018-11-05T08:18:37.804Z,1004.55
2018-11-05T08:19:37.767Z,1004.58
2018-11-05T08:20:37.743Z,1004.54
2018-11-05T08:21:37.697Z,1004.57
2018-11-05T08:22:37.663Z,1004.53
2018-11-05T08:23:37.627Z,1004.53
2018-11-05T08:24:37.596Z,1004.52
2018-11-05T08:25:37.581Z,1004.53
2018-11-05T08:26:37.524Z,1004.53
2018-11-05T08:27:37.488Z,1004.56
2018-11-05T08:28:37.455Z,1004.54
2018-11-05T08:29:37.423Z,1004.49
2018-11-05T08:30:37.382Z,1004.50
2018-11-05T08:31:37.358Z,1004.41
2018-11-05T08:32:37.319Z,1004.41
2018-11-05T08:33:37.283Z,1004.40
2018-11-05T08:34:37.250Z,1004.38
2018-11-05T08:35:37.214Z,1004.36
2018-11-05T08:36:37.187Z,1004.34
2018-11-05T08:37:37.142Z,1004.30
2018-11-05T08:38:37.112Z,1004.28
2018-11-05T08:39:37.076Z,1004.33
2018-11-05T08:40:37.046Z,1004.29
2018-11-05T08:41:37.015Z,1004.29
2018-11-05T08:42:36.974Z,1004.31
2018-11-05T08:43:36.943Z,1004.36
2018-11-05T08:44:36.904Z,1004.35
2018-11-05T08:45:36.872Z,1004.27
2018-11-05T08:46:36.848Z,1004.25
2018-11-05T08:47:36.800Z,1004.21
2018-11-05T08:48:36.771Z,1004.23
2018-11-05T08:49:36.736Z,1004.19
2018-11-05T08:50:36.789Z,1004.22
2018-11-05T08:51:36.968Z,1004.21
2018-11-05T08:52:36.637Z,1004.17
2018-11-05T08:53:36.605Z,1004.16
2018-11-05T08:54:36.566Z,1004.14
2018-11-05T08:55:36.530Z,1004.12
2018-11-05T08:56:36.523Z,1004.17
2018-11-05T08:57:36.531Z,1004.17
2018-11-05T08:58:36.432Z,1004.20
2018-11-05T08:59:36.397Z,1004.20
2018-11-05T09:00:36.366Z,1004.16
2018-11-05T09:01:36.334Z,1004.15
2018-11-05T09:02:36.306Z,1004.15
2018-11-05T09:03:36.281Z,1004.11
2018-11-05T09:04:36.288Z,1004.09
2018-11-05T09:05:36.195Z,1004.07
2018-11-05T09:06:36.163Z,1004.03
2018-11-05T09:07:36.131Z,1004.04
2018-11-05T09:08:36.105Z,1004.04
2018-11-05T09:09:36.072Z,1004.02
2018-11-05T09:10:36.335Z,1003.93
2018-11-05T09:11:36.459Z,1003.95
2018-11-05T09:12:35.964Z,1003.94
2018-11-05T09:13:35.937Z,1003.98
2018-11-05T09:14:35.898Z,1003.97
2018-11-05T09:15:35.869Z,1003.96
2018-11-05T09:16:35.832Z,1003.91
2018-11-05T09:17:35.804Z,1003.93
2018-11-05T09:18:35.788Z,1003.94
2018-11-05T09:19:35.735Z,1003.88
2018-11-05T09:20:35.711Z,1003.86
2018-11-05T09:21:35.670Z,1003.83
2018-11-05T09:22:35.633Z,1003.81
2018-11-05T09:23:35.599Z,1003.80
2018-11-05T09:24:35.576Z,1003.81
2018-11-05T09:25:35.533Z,1003.74
2018-11-05T09:26:35.502Z,1003.73
2018-11-05T09:27:35.469Z,1003.69
2018-11-05T09:28:35.439Z,1003.73
2018-11-05T09:29:35.412Z,1003.63
2018-11-05T09:30:35.370Z,1003.67
2018-11-05T09:31:35.334Z,1003.62
2018-11-05T09:32:35.300Z,1003.66
2018-11-05T09:33:35.274Z,1003.68
2018-11-05T09:34:35.259Z,1003.72
2018-11-05T09:35:35.205Z,1003.75
2018-11-05T09:36:35.169Z,1003.78
2018-11-05T09:37:35.137Z,1003.78
2018-11-05T09:38:35.103Z,1003.73
2018-11-05T09:39:35.070Z,1003.75
2018-11-05T09:40:35.046Z,1003.73
2018-11-05T09:41:35.005Z,1003.75
2018-11-05T09:42:34.987Z,1003.85
2018-11-05T09:43:34.942Z,1003.89
2018-11-05T09:44:34.907Z,1003.88
2018-11-05T09:45:34.889Z,1003.88
2018-11-05T09:46:34.844Z,1003.90
2018-11-05T09:47:34.812Z,1003.90
2018-11-05T09:48:34.775Z,1003.83
2018-11-05T09:49:34.765Z,1003.82
2018-11-05T09:50:34.721Z,1003.76
2018-11-05T09:51:34.675Z,1003.71
2018-11-05T09:52:34.640Z,1003.73
2018-11-05T09:53:34.609Z,1003.76
2018-11-05T09:54:34.574Z,1003.78
2018-11-05T09:55:34.607Z,1003.78
2018-11-05T09:56:34.506Z,1003.77
2018-11-05T09:57:34.474Z,1003.78
2018-11-05T09:58:34.442Z,1003.80
2018-11-05T09:59:34.409Z,1003.81
2018-11-05T10:00:34.383Z,1003.80
2018-11-05T10:01:34.344Z,1003.83
2018-11-05T10:02:34.325Z,1003.82
2018-11-05T10:03:34.529Z,1003.87
2018-11-05T10:04:34.430Z,1003.84
2018-11-05T10:05:34.259Z,1003.85
2018-11-05T10:06:34.177Z,1003.84
2018-11-05T10:07:34.145Z,1003.87
2018-11-05T10:08:34.115Z,1003.86
2018-11-05T10:09:34.108Z,1003.85
2018-11-05T10:10:34.046Z,1003.78
2018-11-05T10:11:34.032Z,1003.82
2018-11-05T10:12:33.981Z,1003.78
2018-11-05T10:13:33.946Z,1003.83
2018-11-05T10:14:33.915Z,1003.80
2018-11-05T10:15:33.880Z,1003.76
2018-11-05T10:16:33.859Z,1003.75
2018-11-05T10:17:33.814Z,1003.77
2018-11-05T10:18:33.789Z,1003.76
2018-11-05T10:19:33.755Z,1003.76
2018-11-05T10:20:33.710Z,1003.75
2018-11-05T10:21:33.695Z,1003.71
2018-11-05T10:22:33.651Z,1003.68
2018-11-05T10:23:33.617Z,1003.65
2018-11-05T10:24:33.678Z,1003.56
2018-11-05T10:25:33.551Z,1003.55
2018-11-05T10:26:33.542Z,1003.56
2018-11-05T10:27:33.486Z,1003.60
2018-11-05T10:28:33.455Z,1003.55
2018-11-05T10:29:33.425Z,1003.55
2018-11-05T10:30:33.385Z,1003.56
2018-11-05T10:31:33.357Z,1003.53
2018-11-05T10:32:33.334Z,1003.54
2018-11-05T10:33:33.378Z,1003.52
2018-11-05T10:34:33.259Z,1003.52
2018-11-05T10:35:33.230Z,1003.50
2018-11-05T10:36:33.193Z,1003.52
2018-11-05T10:37:33.172Z,1003.51
2018-11-05T10:38:33.152Z,1003.50
2018-11-05T10:39:33.100Z,1003.49
2018-11-05T10:40:33.125Z,1003.52
2018-11-05T10:41:33.032Z,1003.54
2018-11-05T10:42:33.012Z,1003.58
2018-11-05T10:43:32.968Z,1003.60
2018-11-05T10:44:32.933Z,1003.66
2018-11-05T10:45:32.901Z,1003.60
2018-11-05T10:46:32.867Z,1003.52
2018-11-05T10:47:32.847Z,1003.48
2018-11-05T10:48:32.817Z,1003.42
2018-11-05T10:49:32.772Z,1003.40
2018-11-05T10:50:32.758Z,1003.39
2018-11-05T10:51:32.728Z,1003.37
2018-11-05T10:52:32.690Z,1003.42
2018-11-05T10:53:32.641Z,1003.46
2018-11-05T10:54:32.611Z,1003.47
2018-11-05T10:55:32.575Z,1003.46
2018-11-05T10:56:32.545Z,1003.47
2018-11-05T10:57:32.517Z,1003.43
2018-11-05T10:58:32.492Z,1003.46
2018-11-05T10:59:32.528Z,1003.44
2018-11-05T11:00:32.411Z,1003.40
2018-11-05T11:01:32.385Z,1003.49
2018-11-05T11:02:32.351Z,1003.48
2018-11-05T11:03:32.334Z,1003.51
2018-11-05T11:04:32.383Z,1003.54
2018-11-05T11:05:32.256Z,1003.55
2018-11-05T11:06:32.223Z,1003.64
2018-11-05T11:07:32.191Z,1003.69
2018-11-05T11:08:32.170Z,1003.67
2018-11-05T11:09:32.190Z,1003.67
2018-11-05T11:10:32.094Z,1003.67
2018-11-05T11:11:32.061Z,1003.62
2018-11-05T11:12:32.029Z,1003.61
2018-11-05T11:13:32.007Z,1003.61
2018-11-05T11:14:31.964Z,1003.64
2018-11-05T11:15:31.934Z,1003.58
2018-11-05T11:16:31.898Z,1003.64
2018-11-05T11:17:31.871Z,1003.54
2018-11-05T11:18:31.846Z,1003.56
2018-11-05T11:19:31.806Z,1003.57
2018-11-05T11:20:31.772Z,1003.56
2018-11-05T11:21:31.742Z,1003.57
2018-11-05T11:22:31.710Z,1003.58
2018-11-05T11:23:31.701Z,1003.55
2018-11-05T11:24:31.642Z,1003.54
2018-11-05T11:25:31.615Z,1003.51
2018-11-05T11:26:31.582Z,1003.45
2018-11-05T11:27:31.571Z,1003.41
2018-11-05T11:28:31.526Z,1003.41
2018-11-05T11:29:31.694Z,1003.39
2018-11-05T11:30:31.455Z,1003.36
2018-11-05T11:31:31.432Z,1003.34
2018-11-05T11:32:31.392Z,1003.36
2018-11-05T11:33:31.363Z,1003.37
2018-11-05T11:34:31.334Z,1003.33
2018-11-05T11:35:31.296Z,1003.35
2018-11-05T11:36:31.323Z,1003.38
2018-11-05T11:37:31.232Z,1003.36
2018-11-05T11:38:31.201Z,1003.35
2018-11-05T11:39:31.234Z,1003.39
2018-11-05T11:40:31.143Z,1003.39
2018-11-05T11:41:31.107Z,1003.35
2018-11-05T11:42:31.080Z,1003.38
2018-11-05T11:43:31.045Z,1003.34
2018-11-05T11:44:31.020Z,1003.34
2018-11-05T11:45:30.990Z,1003.31
2018-11-05T11:46:30.947Z,1003.21
2018-11-05T11:47:30.922Z,1003.18
2018-11-05T11:48:30.883Z,1003.23
2018-11-05T11:49:30.854Z,1003.24
2018-11-05T11:50:30.830Z,1003.19
2018-11-05T11:51:30.790Z,1003.17
2018-11-05T11:52:30.768Z,1003.14
2018-11-05T11:53:30.865Z,1003.10
2018-11-05T11:54:30.695Z,1003.08
2018-11-05T11:55:30.679Z,1003.03
2018-11-05T11:56:30.634Z,1003.03
2018-11-05T11:57:30.626Z,1003.06
2018-11-05T11:58:30.578Z,1003.05
2018-11-05T11:59:30.542Z,1003.04
2018-11-05T12:00:30.521Z,1003.00
2018-11-05T12:01:30.478Z,1003.00
2018-11-05T12:02:30.443Z,1003.05
2018-11-05T12:03:30.413Z,1003.02
2018-11-05T12:04:30.381Z,1003.06
2018-11-05T12:05:30.518Z,1003.06